createdAt,value
2022-12-01T13:47:39.933Z,1.60
2022-12-01T13:50:55.093Z,1.40
2022-12-01T13:54:12.714Z,1.20
2022-12-01T13:57:26.126Z,1.30
2022-12-01T14:00:35.283Z,1.50
2022-12-01T14:03:42.104Z,1.50
2022-12-01T14:06:49.967Z,1.50
2022-12-01T14:09:51.840Z,1.50
2022-12-01T14:12:51.121Z,1.50
2022-12-01T14:15:56.988Z,1.60
2022-12-01T14:18:58.230Z,1.60
2022-12-01T14:21:56.253Z,1.60
2022-12-01T14:24:54.574Z,1.40
2022-12-01T14:27:55.901Z,1.00
2022-12-01T14:31:04.671Z,0.90
2022-12-01T14:34:15.757Z,1.00
2022-12-01T14:37:23.472Z,1.00
2022-12-01T14:40:25.436Z,1.00
2022-12-01T14:43:39.731Z,0.90
2022-12-01T14:46:45.609Z,0.70
2022-12-01T14:50:02.377Z,0.70
2022-12-01T14:53:08.418Z,0.40
2022-12-01T14:56:15.636Z,0.50
2022-12-01T14:59:23.231Z,0.70
2022-12-01T15:02:21.430Z,0.40
2022-12-01T15:05:23.071Z,0.50
2022-12-01T15:08:41.979Z,0.50
2022-12-01T15:11:53.878Z,0.00
2022-12-01T15:14:53.280Z,0.10
2022-12-01T15:17:52.868Z,0.30
2022-12-01T15:20:57.354Z,0.60
2022-12-01T15:24:05.917Z,0.70
2022-12-01T15:27:04.469Z,0.80
2022-12-01T15:31:03.799Z,0.90
2022-12-01T15:34:05.550Z,1.00
2022-12-01T15:37:09.868Z,1.10
2022-12-01T15:43:47.978Z,1.00
2022-12-01T15:46:48.431Z,1.10
2022-12-01T15:49:50.546Z,1.00
2022-12-01T15:52:50.152Z,0.90
2022-12-01T15:55:55.532Z,0.80
2022-12-01T15:59:20.627Z,0.90
2022-12-01T16:02:32.496Z,0.90
2022-12-01T16:05:34.857Z,1.00
2022-12-01T16:08:33.116Z,1.10
2022-12-01T16:11:32.886Z,1.00
2022-12-01T16:14:32.567Z,1.10
2022-12-01T16:17:43.922Z,1.10
2022-12-01T16:20:44.524Z,0.70
2022-12-01T16:23:43.490Z,0.70
2022-12-01T16:26:52.338Z,0.60
2022-12-01T16:29:56.535Z,0.80
2022-12-01T16:33:03.437Z,0.80
2022-12-01T16:36:04.486Z,0.80
2022-12-01T16:39:08.361Z,0.80
2022-12-01T16:42:06.614Z,0.70
2022-12-01T16:45:04.675Z,0.70
2022-12-01T16:48:09.003Z,0.80
2022-12-01T16:51:08.706Z,0.90
2022-12-01T16:54:07.454Z,0.80
2022-12-01T16:57:05.393Z,0.90
2022-12-01T17:00:04.196Z,0.90
2022-12-01T17:03:02.379Z,1.00
2022-12-01T17:06:02.452Z,1.00
2022-12-01T17:09:00.928Z,1.00
2022-12-01T17:12:01.904Z,0.80
2022-12-01T17:14:59.753Z,1.00
2022-12-01T17:17:57.895Z,0.90
2022-12-01T17:21:03.282Z,0.90
2022-12-01T17:24:01.367Z,0.80
2022-12-01T17:26:59.334Z,0.80
2022-12-01T17:29:59.443Z,0.90
2022-12-01T17:32:58.303Z,0.90
2022-12-01T17:35:56.305Z,0.70
2022-12-01T17:38:54.671Z,0.60
2022-12-01T17:41:55.284Z,0.60
2022-12-01T17:44:53.107Z,0.50
2022-12-01T17:47:51.293Z,0.50
2022-12-01T17:50:49.096Z,0.40
2022-12-01T17:53:47.155Z,0.30
2022-12-01T17:56:44.974Z,0.30
2022-12-01T17:59:42.929Z,0.40
2022-12-01T18:02:40.818Z,0.30
2022-12-01T18:05:39.246Z,0.10
2022-12-01T18:08:38.162Z,0.10
2022-12-01T18:11:36.162Z,0.10
2022-12-01T18:14:35.103Z,0.10
2022-12-01T18:17:33.044Z,0.00
2022-12-01T18:20:30.836Z,0.00
2022-12-01T18:23:28.769Z,-0.20
2022-12-01T18:26:28.365Z,-0.30
2022-12-01T18:29:26.541Z,-0.30
2022-12-01T18:32:24.384Z,-0.30
2022-12-01T18:35:23.102Z,-0.30
2022-12-01T18:38:25.428Z,-0.20
2022-12-01T18:41:23.468Z,-0.20
2022-12-01T18:44:21.447Z,-0.30
2022-12-01T18:47:19.456Z,-0.30
2022-12-01T18:50:17.378Z,-0.30
2022-12-01T18:53:15.395Z,-0.50
2022-12-01T18:56:15.355Z,-0.50
2022-12-01T18:59:15.198Z,-0.40
2022-12-01T19:02:13.054Z,-0.50
2022-12-01T19:05:11.290Z,-0.60
2022-12-01T19:08:09.133Z,-0.70
2022-12-01T19:11:07.796Z,-0.70
2022-12-01T19:14:06.032Z,-0.60
2022-12-01T19:17:04.028Z,-0.50
2022-12-01T19:20:01.907Z,-0.50
2022-12-01T19:23:00.132Z,-0.50
2022-12-01T19:25:58.057Z,-0.50
2022-12-01T19:28:56.030Z,-0.50
2022-12-01T19:31:54.050Z,-0.50
2022-12-01T19:34:52.258Z,-0.50
2022-12-01T19:37:51.937Z,-0.60
2022-12-01T19:40:50.844Z,-0.50
2022-12-01T19:43:49.101Z,-0.50
2022-12-01T19:46:47.072Z,-0.50
2022-12-01T19:49:44.907Z,-0.40
2022-12-01T19:52:42.962Z,-0.50
2022-12-01T19:55:40.845Z,-0.50
2022-12-01T19:58:39.001Z,-0.60
2022-12-01T20:01:36.864Z,-0.60
2022-12-01T20:04:35.050Z,-0.60
2022-12-01T20:07:32.948Z,-0.50
2022-12-01T20:10:31.081Z,-0.40
2022-12-01T20:13:30.679Z,-0.50
2022-12-01T20:16:31.167Z,-0.50
2022-12-01T20:19:29.106Z,-0.40
2022-12-01T20:22:27.081Z,-0.40
2022-12-01T20:25:24.975Z,-0.40
2022-12-01T20:28:22.930Z,-0.40
2022-12-01T20:31:24.976Z,-0.40
2022-12-01T20:34:27.573Z,-0.40
2022-12-01T20:37:25.409Z,-0.30
2022-12-01T20:40:23.546Z,-0.30
2022-12-01T20:43:23.929Z,-0.30
2022-12-01T20:46:23.220Z,-0.30
2022-12-01T20:49:21.700Z,-0.30
2022-12-01T20:52:19.749Z,-0.30
2022-12-01T20:55:18.336Z,-0.40
2022-12-01T20:58:16.304Z,-0.40
2022-12-01T21:04:28.593Z,-0.70
2022-12-01T21:07:26.581Z,-0.70
2022-12-01T21:10:24.723Z,-0.70
2022-12-01T21:13:40.332Z,-0.60
2022-12-01T21:16:41.759Z,-0.50
2022-12-01T21:19:50.833Z,-0.40
2022-12-01T21:22:51.014Z,-0.30
2022-12-01T21:25:51.409Z,-0.30
2022-12-01T21:28:49.361Z,-0.20
2022-12-01T21:31:49.397Z,-0.20
2022-12-01T21:34:49.107Z,-0.20
2022-12-01T21:37:48.614Z,-0.20
2022-12-01T21:40:47.467Z,-0.20
2022-12-01T21:43:45.579Z,-0.20
2022-12-01T21:46:44.528Z,-0.20
2022-12-01T21:49:42.587Z,-0.20
2022-12-01T21:52:42.794Z,-0.20
2022-12-01T21:55:43.675Z,-0.30
2022-12-01T21:58:41.611Z,-0.50
2022-12-01T22:01:41.368Z,-0.50
2022-12-01T22:04:41.774Z,-0.60
2022-12-01T22:07:39.631Z,-0.60
2022-12-01T22:10:58.662Z,-0.60
2022-12-01T22:14:12.152Z,-0.60
2022-12-01T22:17:21.648Z,-0.60
2022-12-01T22:20:23.636Z,-0.50
2022-12-01T22:23:22.756Z,-0.50
2022-12-01T22:26:21.856Z,-0.50
2022-12-01T22:29:44.391Z,-0.40
2022-12-01T22:32:59.808Z,-0.30
2022-12-01T22:35:57.775Z,-0.30
2022-12-01T22:38:56.883Z,-0.30
2022-12-01T22:41:59.703Z,-0.20
2022-12-01T22:45:03.855Z,-0.20
2022-12-01T22:48:05.204Z,-0.30
2022-12-01T22:51:21.795Z,-0.40
2022-12-01T22:54:29.983Z,-0.40
2022-12-01T22:57:33.681Z,-0.30
2022-12-01T23:00:31.791Z,-0.30
2022-12-01T23:03:29.659Z,-0.30
2022-12-01T23:06:58.306Z,-0.30
2022-12-01T23:10:14.883Z,-0.20
2022-12-01T23:13:19.390Z,-0.20
2022-12-01T23:16:17.269Z,-0.30
2022-12-01T23:19:15.265Z,-0.20
2022-12-01T23:22:13.428Z,-0.10
2022-12-01T23:25:15.763Z,-0.10
2022-12-01T23:28:14.557Z,-0.10
2022-12-01T23:31:12.774Z,0.00
2022-12-01T23:34:15.892Z,0.00
2022-12-01T23:37:34.706Z,0.00
2022-12-01T23:40:36.449Z,-0.10
2022-12-01T23:43:38.297Z,-0.20
2022-12-01T23:46:37.364Z,-0.30
2022-12-01T23:49:36.850Z,-0.30
2022-12-01T23:52:37.485Z,-0.30
2022-12-01T23:55:35.571Z,-0.40
2022-12-01T23:58:34.377Z,-0.30
